sensor_id;sensor_type;location;lat;lon;timestamp;pressure;altitude;pressure_sealevel;temperature;humidity
50977;BME280;36992;48.200;12.418;2022-07-24T00:00:30;97052.34;;;26.22;46.63
50977;BME280;36992;48.200;12.418;2022-07-24T00:02:57;97057.88;;;26.22;46.86
50977;BME280;36992;48.200;12.418;2022-07-24T00:05:23;97061.78;;;26.21;46.76
50977;BME280;36992;48.200;12.418;2022-07-24T00:07:51;97067.72;;;26.23;45.77
50977;BME280;36992;48.200;12.418;2022-07-24T00:10:18;97064.53;;;26.21;45.96
50977;BME280;36992;48.200;12.418;2022-07-24T00:12:44;97064.97;;;26.23;46.54
50977;BME280;36992;48.200;12.418;2022-07-24T00:15:11;97060.22;;;26.24;46.71
50977;BME280;36992;48.200;12.418;2022-07-24T00:17:38;97061.03;;;26.24;46.62
50977;BME280;36992;48.200;12.418;2022-07-24T00:20:06;97062.19;;;26.23;46.72
50977;BME280;36992;48.200;12.418;2022-07-24T00:22:33;97063.38;;;26.22;46.43
50977;BME280;36992;48.200;12.418;2022-07-24T00:25:01;97063.38;;;26.22;45.91
50977;BME280;36992;48.200;12.418;2022-07-24T00:27:27;97073.97;;;26.20;46.56
50977;BME280;36992;48.200;12.418;2022-07-24T00:29:53;97078.72;;;26.20;46.19
50977;BME280;36992;48.200;12.418;2022-07-24T00:32:20;97076.75;;;26.20;46.31
50977;BME280;36992;48.200;12.418;2022-07-24T00:34:46;97064.50;;;26.18;45.76
50977;BME280;36992;48.200;12.418;2022-07-24T00:37:13;97072.78;;;26.18;46.52
50977;BME280;36992;48.200;12.418;2022-07-24T00:39:39;97068.06;;;26.18;47.22
50977;BME280;36992;48.200;12.418;2022-07-24T00:42:07;97070.81;;;26.18;46.67
50977;BME280;36992;48.200;12.418;2022-07-24T00:44:34;97068.84;;;26.15;46.65
50977;BME280;36992;48.200;12.418;2022-07-24T00:47:00;97068.44;;;26.13;46.60
50977;BME280;36992;48.200;12.418;2022-07-24T00:49:27;97064.09;;;26.12;46.94
50977;BME280;36992;48.200;12.418;2022-07-24T00:51:53;97060.13;;;26.09;46.89
50977;BME280;36992;48.200;12.418;2022-07-24T00:54:21;97056.59;;;26.09;47.17
50977;BME280;36992;48.200;12.418;2022-07-24T00:56:50;97059.38;;;26.09;46.74
50977;BME280;36992;48.200;12.418;2022-07-24T00:59:19;97062.13;;;26.09;46.07
50977;BME280;36992;48.200;12.418;2022-07-24T01:01:45;97057.75;;;26.08;46.49
50977;BME280;36992;48.200;12.418;2022-07-24T01:04:12;97063.28;;;26.08;46.55
50977;BME280;36992;48.200;12.418;2022-07-24T01:06:40;97053.03;;;26.08;46.95
50977;BME280;36992;48.200;12.418;2022-07-24T01:09:06;97054.59;;;26.06;47.17
50977;BME280;36992;48.200;12.418;2022-07-24T01:11:33;97053.78;;;26.05;46.47
50977;BME280;36992;48.200;12.418;2022-07-24T01:14:00;97053.41;;;26.03;47.71
50977;BME280;36992;48.200;12.418;2022-07-24T01:16:28;97054.97;;;26.00;47.48
50977;BME280;36992;48.200;12.418;2022-07-24T01:18:54;97041.94;;;25.97;47.28
50977;BME280;36992;48.200;12.418;2022-07-24T01:21:22;97050.22;;;25.97;46.88
50977;BME280;36992;48.200;12.418;2022-07-24T01:23:50;97049.03;;;25.95;47.25
50977;BME280;36992;48.200;12.418;2022-07-24T01:26:16;97048.22;;;25.94;47.24
50977;BME280;36992;48.200;12.418;2022-07-24T01:28:43;97052.97;;;25.94;47.22
50977;BME280;36992;48.200;12.418;2022-07-24T01:31:10;97042.72;;;25.94;47.50
50977;BME280;36992;48.200;12.418;2022-07-24T01:33:36;97041.13;;;25.93;46.74
50977;BME280;36992;48.200;12.418;2022-07-24T01:36:03;97036.41;;;25.94;46.76
50977;BME280;36992;48.200;12.418;2022-07-24T01:38:31;97033.25;;;25.95;46.87
50977;BME280;36992;48.200;12.418;2022-07-24T01:40:57;97041.94;;;25.94;46.44
50977;BME280;36992;48.200;12.418;2022-07-24T01:43:24;97037.19;;;25.94;46.50
50977;BME280;36992;48.200;12.418;2022-07-24T01:45:50;97044.28;;;25.95;47.13
50977;BME280;36992;48.200;12.418;2022-07-24T01:48:17;97045.91;;;25.96;47.15
50977;BME280;36992;48.200;12.418;2022-07-24T01:50:44;97050.63;;;25.96;47.20
50977;BME280;36992;48.200;12.418;2022-07-24T01:53:10;97045.91;;;25.96;47.20
50977;BME280;36992;48.200;12.418;2022-07-24T01:55:38;97042.34;;;25.96;47.83
50977;BME280;36992;48.200;12.418;2022-07-24T01:58:04;97039.19;;;25.94;47.61
50977;BME280;36992;48.200;12.418;2022-07-24T02:00:31;97039.16;;;25.90;47.90
50977;BME280;36992;48.200;12.418;2022-07-24T02:02:57;97036.34;;;25.86;47.40
50977;BME280;36992;48.200;12.418;2022-07-24T02:05:24;97042.66;;;25.83;46.58
50977;BME280;36992;48.200;12.418;2022-07-24T02:07:55;97039.53;;;25.85;46.79
50977;BME280;36992;48.200;12.418;2022-07-24T02:10:23;97042.66;;;25.80;46.94
50977;BME280;36992;48.200;12.418;2022-07-24T02:12:51;97046.97;;;25.81;47.61
50977;BME280;36992;48.200;12.418;2022-07-24T02:15:17;97038.31;;;25.79;47.77
50977;BME280;36992;48.200;12.418;2022-07-24T02:17:47;97034.75;;;25.78;47.09
50977;BME280;36992;48.200;12.418;2022-07-24T02:20:14;97027.63;;;25.73;47.44
50977;BME280;36992;48.200;12.418;2022-07-24T02:22:41;97033.53;;;25.72;47.15
50977;BME280;36992;48.200;12.418;2022-07-24T02:25:08;97031.16;;;25.70;46.94
50977;BME280;36992;48.200;12.418;2022-07-24T02:27:35;97036.66;;;25.70;46.96
50977;BME280;36992;48.200;12.418;2022-07-24T02:30:06;97038.66;;;25.73;47.74
50977;BME280;36992;48.200;12.418;2022-07-24T02:32:33;97033.13;;;25.70;48.34
50977;BME280;36992;48.200;12.418;2022-07-24T02:35:00;97041.78;;;25.68;48.33
50977;BME280;36992;48.200;12.418;2022-07-24T02:37:27;97040.19;;;25.64;48.90
50977;BME280;36992;48.200;12.418;2022-07-24T02:39:53;97038.59;;;25.59;48.69
50977;BME280;36992;48.200;12.418;2022-07-24T02:42:20;97036.19;;;25.54;48.82
50977;BME280;36992;48.200;12.418;2022-07-24T02:44:46;97040.03;;;25.49;47.81
50977;BME280;36992;48.200;12.418;2022-07-24T02:47:14;97033.34;;;25.46;47.86
50977;BME280;36992;48.200;12.418;2022-07-24T02:49:40;97036.88;;;25.43;48.37
50977;BME280;36992;48.200;12.418;2022-07-24T02:52:07;97040.81;;;25.42;48.40
50977;BME280;36992;48.200;12.418;2022-07-24T02:54:33;97031.72;;;25.42;48.75
50977;BME280;36992;48.200;12.418;2022-07-24T02:57:00;97040.44;;;25.44;48.13
50977;BME280;36992;48.200;12.418;2022-07-24T02:59:26;97040.44;;;25.44;48.38
50977;BME280;36992;48.200;12.418;2022-07-24T03:01:53;97034.50;;;25.45;48.28
50977;BME280;36992;48.200;12.418;2022-07-24T03:04:21;97042.03;;;25.49;48.48
50977;BME280;36992;48.200;12.418;2022-07-24T03:06:47;97047.16;;;25.46;49.30
50977;BME280;36992;48.200;12.418;2022-07-24T03:09:14;97045.53;;;25.45;48.72
50977;BME280;36992;48.200;12.418;2022-07-24T03:11:40;97042.38;;;25.43;48.36
50977;BME280;36992;48.200;12.418;2022-07-24T03:14:07;97039.63;;;25.43;48.44
50977;BME280;36992;48.200;12.418;2022-07-24T03:16:33;97049.06;;;25.42;47.98
50977;BME280;36992;48.200;12.418;2022-07-24T03:19:00;97054.59;;;25.42;48.66
50977;BME280;36992;48.200;12.418;2022-07-24T03:21:28;97055.00;;;25.44;48.61
50977;BME280;36992;48.200;12.418;2022-07-24T03:23:54;97056.53;;;25.42;48.71
50977;BME280;36992;48.200;12.418;2022-07-24T03:26:21;97058.91;;;25.40;48.58
50977;BME280;36992;48.200;12.418;2022-07-24T03:28:47;97058.88;;;25.36;48.27
50977;BME280;36992;48.200;12.418;2022-07-24T03:31:14;97058.06;;;25.36;48.20
50977;BME280;36992;48.200;12.418;2022-07-24T03:33:40;97055.72;;;25.34;47.80
50977;BME280;36992;48.200;12.418;2022-07-24T03:36:07;97047.03;;;25.36;48.11
50977;BME280;36992;48.200;12.418;2022-07-24T03:38:35;97058.50;;;25.38;47.54
50977;BME280;36992;48.200;12.418;2022-07-24T03:41:02;97054.94;;;25.37;48.27
50977;BME280;36992;48.200;12.418;2022-07-24T03:43:29;97060.47;;;25.37;48.13
50977;BME280;36992;48.200;12.418;2022-07-24T03:45:55;97060.47;;;25.37;48.26
50977;BME280;36992;48.200;12.418;2022-07-24T03:48:21;97060.47;;;25.37;48.95
50977;BME280;36992;48.200;12.418;2022-07-24T03:50:48;97060.47;;;25.37;48.24
50977;BME280;36992;48.200;12.418;2022-07-24T03:53:14;97059.25;;;25.35;48.11
50977;BME280;36992;48.200;12.418;2022-07-24T03:55:42;97055.31;;;25.36;48.18
50977;BME280;36992;48.200;12.418;2022-07-24T03:58:09;97063.19;;;25.33;48.47
50977;BME280;36992;48.200;12.418;2022-07-24T04:00:35;97056.09;;;25.32;47.94
50977;BME280;36992;48.200;12.418;2022-07-24T04:03:02;97056.47;;;25.31;48.23
50977;BME280;36992;48.200;12.418;2022-07-24T04:05:28;97065.91;;;25.30;48.26
50977;BME280;36992;48.200;12.418;2022-07-24T04:07:55;97064.34;;;25.29;48.56
50977;BME280;36992;48.200;12.418;2022-07-24T04:10:21;97071.03;;;25.28;48.70
50977;BME280;36992;48.200;12.418;2022-07-24T04:12:49;97073.78;;;25.28;48.91
50977;BME280;36992;48.200;12.418;2022-07-24T04:15:16;97069.81;;;25.25;48.96
50977;BME280;36992;48.200;12.418;2022-07-24T04:17:42;97071.38;;;25.23;48.69
50977;BME280;36992;48.200;12.418;2022-07-24T04:20:10;97072.94;;;25.20;48.43
50977;BME280;36992;48.200;12.418;2022-07-24T04:22:37;97074.47;;;25.17;48.70
50977;BME280;36992;48.200;12.418;2022-07-24T04:25:05;97066.59;;;25.16;48.56
50977;BME280;36992;48.200;12.418;2022-07-24T04:27:31;97065.81;;;25.15;48.26
50977;BME280;36992;48.200;12.418;2022-07-24T04:29:59;97066.59;;;25.16;48.69
50977;BME280;36992;48.200;12.418;2022-07-24T04:32:26;97069.72;;;25.14;48.90
50977;BME280;36992;48.200;12.418;2022-07-24T04:34:52;97073.28;;;25.15;48.23
50977;BME280;36992;48.200;12.418;2022-07-24T04:37:19;97075.22;;;25.14;48.28
50977;BME280;36992;48.200;12.418;2022-07-24T04:39:45;97066.97;;;25.14;48.82
50977;BME280;36992;48.200;12.418;2022-07-24T04:42:12;97074.44;;;25.14;49.28
50977;BME280;36992;48.200;12.418;2022-07-24T04:44:39;97075.22;;;25.14;49.21
50977;BME280;36992;48.200;12.418;2022-07-24T04:47:07;97076.03;;;25.15;49.05
50977;BME280;36992;48.200;12.418;2022-07-24T04:49:34;97072.06;;;25.12;48.92
50977;BME280;36992;48.200;12.418;2022-07-24T04:52:00;97074.41;;;25.10;48.98
50977;BME280;36992;48.200;12.418;2022-07-24T04:54:27;97079.13;;;25.10;49.30
50977;BME280;36992;48.200;12.418;2022-07-24T04:56:53;97083.06;;;25.09;48.55
50977;BME280;36992;48.200;12.418;2022-07-24T04:59:20;97086.63;;;25.09;48.66
50977;BME280;36992;48.200;12.418;2022-07-24T05:01:46;97089.38;;;25.09;48.27
50977;BME280;36992;48.200;12.418;2022-07-24T05:04:14;97081.50;;;25.11;48.23
50977;BME280;36992;48.200;12.418;2022-07-24T05:06:41;97094.13;;;25.12;48.46
50977;BME280;36992;48.200;12.418;2022-07-24T05:09:08;97090.19;;;25.13;48.88
50977;BME280;36992;48.200;12.418;2022-07-24T05:11:34;97098.06;;;25.15;49.69
50977;BME280;36992;48.200;12.418;2022-07-24T05:14:01;97095.31;;;25.15;49.32
50977;BME280;36992;48.200;12.418;2022-07-24T05:16:27;97097.28;;;25.14;49.53
50977;BME280;36992;48.200;12.418;2022-07-24T05:18:54;97096.50;;;25.14;49.78
50977;BME280;36992;48.200;12.418;2022-07-24T05:21:22;97100.44;;;25.13;49.29
50977;BME280;36992;48.200;12.418;2022-07-24T05:23:48;97101.97;;;25.10;49.73
50977;BME280;36992;48.200;12.418;2022-07-24T05:26:15;97104.31;;;25.08;49.52
50977;BME280;36992;48.200;12.418;2022-07-24T05:28:41;97101.16;;;25.06;49.84
50977;BME280;36992;48.200;12.418;2022-07-24T05:31:08;97098.38;;;25.06;48.46
50977;BME280;36992;48.200;12.418;2022-07-24T05:33:35;97099.56;;;25.05;49.13
50977;BME280;36992;48.200;12.418;2022-07-24T05:36:02;97110.22;;;25.07;50.26
50977;BME280;36992;48.200;12.418;2022-07-24T05:38:30;97105.09;;;25.09;49.49
50977;BME280;36992;48.200;12.418;2022-07-24T05:40:57;97101.16;;;25.06;50.76
50977;BME280;36992;48.200;12.418;2022-07-24T05:43:23;97113.34;;;25.05;49.53
50977;BME280;36992;48.200;12.418;2022-07-24T05:45:50;97112.94;;;25.03;48.76
50977;BME280;36992;48.200;12.418;2022-07-24T05:48:16;97120.03;;;25.04;49.48
50977;BME280;36992;48.200;12.418;2022-07-24T05:50:42;97117.28;;;25.04;49.99
50977;BME280;36992;48.200;12.418;2022-07-24T05:53:09;97113.34;;;25.05;49.93
50977;BME280;36992;48.200;12.418;2022-07-24T05:55:37;97116.50;;;25.07;49.18
50977;BME280;36992;48.200;12.418;2022-07-24T05:58:03;97117.69;;;25.06;49.61
50977;BME280;36992;48.200;12.418;2022-07-24T06:00:30;97109.03;;;25.08;49.13
50977;BME280;36992;48.200;12.418;2022-07-24T06:02:56;97111.03;;;25.11;49.79
50977;BME280;36992;48.200;12.418;2022-07-24T06:05:23;97110.66;;;25.12;49.12
50977;BME280;36992;48.200;12.418;2022-07-24T06:07:49;97107.16;;;25.15;49.02
50977;BME280;36992;48.200;12.418;2022-07-24T06:10:16;97109.50;;;25.17;49.85
50977;BME280;36992;48.200;12.418;2022-07-24T06:12:43;97111.50;;;25.20;49.21
50977;BME280;36992;48.200;12.418;2022-07-24T06:15:10;97107.59;;;25.21;49.97
50977;BME280;36992;48.200;12.418;2022-07-24T06:17:37;97115.47;;;25.23;49.09
50977;BME280;36992;48.200;12.418;2022-07-24T06:20:04;97113.13;;;25.25;48.35
50977;BME280;36992;48.200;12.418;2022-07-24T06:22:31;97115.13;;;25.28;50.08
50977;BME280;36992;48.200;12.418;2022-07-24T06:24:57;97111.59;;;25.31;49.46
50977;BME280;36992;48.200;12.418;2022-07-24T06:27:24;97107.31;;;25.33;50.59
50977;BME280;36992;48.200;12.418;2022-07-24T06:29:52;97117.19;;;25.38;50.89
50977;BME280;36992;48.200;12.418;2022-07-24T06:32:18;97108.13;;;25.38;49.25
50977;BME280;36992;48.200;12.418;2022-07-24T06:34:45;97110.91;;;25.41;49.60
50977;BME280;36992;48.200;12.418;2022-07-24T06:37:11;97106.97;;;25.42;49.73
50977;BME280;36992;48.200;12.418;2022-07-24T06:39:38;97107.38;;;25.44;49.40
50977;BME280;36992;48.200;12.418;2022-07-24T06:42:04;97107.41;;;25.48;51.20
50977;BME280;36992;48.200;12.418;2022-07-24T06:44:31;97112.53;;;25.50;49.89
50977;BME280;36992;48.200;12.418;2022-07-24T06:47:02;97109.47;;;25.55;49.73
50977;BME280;36992;48.200;12.418;2022-07-24T06:49:29;97105.53;;;25.56;50.65
50977;BME280;36992;48.200;12.418;2022-07-24T06:51:56;97106.38;;;25.60;50.39
50977;BME280;36992;48.200;12.418;2022-07-24T06:54:22;97099.28;;;25.63;49.59
50977;BME280;36992;48.200;12.418;2022-07-24T06:56:48;97100.09;;;25.67;49.82
50977;BME280;36992;48.200;12.418;2022-07-24T06:59:15;97101.72;;;25.71;50.04
50977;BME280;36992;48.200;12.418;2022-07-24T07:01:41;97098.97;;;25.75;49.50
50977;BME280;36992;48.200;12.418;2022-07-24T07:04:09;97093.06;;;25.80;49.03
50977;BME280;36992;48.200;12.418;2022-07-24T07:06:36;97099.81;;;25.83;48.42
50977;BME280;36992;48.200;12.418;2022-07-24T07:09:02;97095.47;;;25.85;48.11
50977;BME280;36992;48.200;12.418;2022-07-24T07:11:29;97099.44;;;25.88;48.28
50977;BME280;36992;48.200;12.418;2022-07-24T07:13:55;97096.31;;;25.93;49.42
50977;BME280;36992;48.200;12.418;2022-07-24T07:16:22;97092.81;;;25.96;49.86
50977;BME280;36992;48.200;12.418;2022-07-24T07:18:48;97096.34;;;26.00;48.71
50977;BME280;36992;48.200;12.418;2022-07-24T07:21:16;97097.56;;;26.07;49.24
50977;BME280;36992;48.200;12.418;2022-07-24T07:23:43;97102.34;;;26.10;48.45
50977;BME280;36992;48.200;12.418;2022-07-24T07:26:09;97104.31;;;26.13;49.79
50977;BME280;36992;48.200;12.418;2022-07-24T07:28:36;97101.19;;;26.18;48.28
50977;BME280;36992;48.200;12.418;2022-07-24T07:31:02;97103.19;;;26.21;47.98
50977;BME280;36992;48.200;12.418;2022-07-24T07:33:29;97106.78;;;26.25;48.99
50977;BME280;36992;48.200;12.418;2022-07-24T07:35:55;97100.50;;;26.29;48.87
50977;BME280;36992;48.200;12.418;2022-07-24T07:38:23;97102.88;;;26.34;48.06
50977;BME280;36992;48.200;12.418;2022-07-24T07:40:50;97104.84;;;26.37;48.35
50977;BME280;36992;48.200;12.418;2022-07-24T07:43:16;97104.50;;;26.42;48.17
50977;BME280;36992;48.200;12.418;2022-07-24T07:45:42;97116.34;;;26.46;48.84
50977;BME280;36992;48.200;12.418;2022-07-24T07:48:09;97115.94;;;26.51;48.96
50977;BME280;36992;48.200;12.418;2022-07-24T07:50:35;97112.44;;;26.55;49.15
50977;BME280;36992;48.200;12.418;2022-07-24T07:53:02;97122.69;;;26.58;48.68
50977;BME280;36992;48.200;12.418;2022-07-24T07:55:30;97114.81;;;26.63;49.00
50977;BME280;36992;48.200;12.418;2022-07-24T07:57:56;97112.84;;;26.64;48.95
50977;BME280;36992;48.200;12.418;2022-07-24T08:00:23;97110.88;;;26.68;49.11
50977;BME280;36992;48.200;12.418;2022-07-24T08:02:49;97116.81;;;26.70;49.11
50977;BME280;36992;48.200;12.418;2022-07-24T08:05:16;97110.91;;;26.75;48.67
50977;BME280;36992;48.200;12.418;2022-07-24T08:07:42;97121.19;;;26.78;48.41
50977;BME280;36992;48.200;12.418;2022-07-24T08:10:09;97120.78;;;26.84;47.81
50977;BME280;36992;48.200;12.418;2022-07-24T08:12:37;97112.91;;;26.89;47.48
50977;BME280;36992;48.200;12.418;2022-07-24T08:15:04;97115.72;;;26.93;47.67
50977;BME280;36992;48.200;12.418;2022-07-24T08:17:31;97113.34;;;26.99;47.20
50977;BME280;36992;48.200;12.418;2022-07-24T08:19:58;97111.78;;;27.05;48.51
50977;BME280;36992;48.200;12.418;2022-07-24T08:22:24;97111.78;;;27.09;47.36
50977;BME280;36992;48.200;12.418;2022-07-24T08:24:51;97115.75;;;27.15;48.37
50977;BME280;36992;48.200;12.418;2022-07-24T08:27:17;97108.63;;;27.21;47.46
50977;BME280;36992;48.200;12.418;2022-07-24T08:29:45;97116.97;;;27.28;47.26
50977;BME280;36992;48.200;12.418;2022-07-24T08:32:12;97099.56;;;27.31;47.98
50977;BME280;36992;48.200;12.418;2022-07-24T08:34:38;97105.91;;;27.36;47.79
50977;BME280;36992;48.200;12.418;2022-07-24T08:37:05;97109.84;;;27.42;46.64
50977;BME280;36992;48.200;12.418;2022-07-24T08:39:32;97106.28;;;27.45;47.24
50977;BME280;36992;48.200;12.418;2022-07-24T08:41:58;97108.66;;;27.50;46.47
50977;BME280;36992;48.200;12.418;2022-07-24T08:44:25;97107.88;;;27.53;46.29
50977;BME280;36992;48.200;12.418;2022-07-24T08:46:53;97107.91;;;27.60;46.45
50977;BME280;36992;48.200;12.418;2022-07-24T08:49:21;97110.28;;;27.62;46.55
50977;BME280;36992;48.200;12.418;2022-07-24T08:51:49;97104.75;;;27.66;44.87
50977;BME280;36992;48.200;12.418;2022-07-24T08:54:15;97105.50;;;27.70;44.75
50977;BME280;36992;48.200;12.418;2022-07-24T08:56:42;97104.72;;;27.73;44.70
50977;BME280;36992;48.200;12.418;2022-07-24T08:59:15;97111.44;;;27.83;45.29
50977;BME280;36992;48.200;12.418;2022-07-24T09:01:42;97106.66;;;27.83;44.70
50977;BME280;36992;48.200;12.418;2022-07-24T09:04:37;97114.19;;;27.94;43.84
50977;BME280;36992;48.200;12.418;2022-07-24T09:07:06;97107.84;;;27.97;43.65
50977;BME280;36992;48.200;12.418;2022-07-24T09:09:33;97111.78;;;27.99;43.68
50977;BME280;36992;48.200;12.418;2022-07-24T09:12:05;97099.91;;;28.10;43.92
50977;BME280;36992;48.200;12.418;2022-07-24T09:14:33;97107.81;;;28.11;43.66
50977;BME280;36992;48.200;12.418;2022-07-24T09:17:04;97109.34;;;28.20;43.54
50977;BME280;36992;48.200;12.418;2022-07-24T09:19:31;97105.84;;;28.23;43.14
50977;BME280;36992;48.200;12.418;2022-07-24T09:21:59;97103.81;;;28.31;43.45
50977;BME280;36992;48.200;12.418;2022-07-24T09:24:26;97097.09;;;28.35;42.49
50977;BME280;36992;48.200;12.418;2022-07-24T09:26:54;97096.25;;;28.42;42.12
50977;BME280;36992;48.200;12.418;2022-07-24T09:29:23;97103.75;;;28.49;42.62
50977;BME280;36992;48.200;12.418;2022-07-24T09:31:52;97091.44;;;28.53;41.52
50977;BME280;36992;48.200;12.418;2022-07-24T09:34:19;97101.31;;;28.58;40.10
50977;BME280;36992;48.200;12.418;2022-07-24T09:36:55;97091.81;;;28.66;41.26
50977;BME280;36992;48.200;12.418;2022-07-24T09:39:24;97094.16;;;28.72;40.95
50977;BME280;36992;48.200;12.418;2022-07-24T09:41:53;97102.84;;;28.74;39.55
50977;BME280;36992;48.200;12.418;2022-07-24T09:44:20;97098.06;;;28.78;40.06
50977;BME280;36992;48.200;12.418;2022-07-24T09:46:54;97093.25;;;28.89;40.67
50977;BME280;36992;48.200;12.418;2022-07-24T09:49:21;97088.13;;;28.91;40.29
50977;BME280;36992;48.200;12.418;2022-07-24T09:52:09;97089.22;;;29.05;40.01
50977;BME280;36992;48.200;12.418;2022-07-24T09:54:39;97075.72;;;29.07;38.55
50977;BME280;36992;48.200;12.418;2022-07-24T09:57:18;97080.41;;;29.17;39.72
50977;BME280;36992;48.200;12.418;2022-07-24T09:59:46;97071.28;;;29.17;38.89
50977;BME280;36992;48.200;12.418;2022-07-24T10:02:15;97074.03;;;29.20;37.89
50977;BME280;36992;48.200;12.418;2022-07-24T10:04:43;97083.50;;;29.27;38.20
50977;BME280;36992;48.200;12.418;2022-07-24T10:07:11;97076.31;;;29.33;38.01
50977;BME280;36992;48.200;12.418;2022-07-24T10:09:42;97081.78;;;29.44;38.40
50977;BME280;36992;48.200;12.418;2022-07-24T10:12:12;97079.00;;;29.47;38.11
50977;BME280;36992;48.200;12.418;2022-07-24T10:14:39;97070.66;;;29.51;37.14
50977;BME280;36992;48.200;12.418;2022-07-24T10:17:08;97065.44;;;29.57;37.60
50977;BME280;36992;48.200;12.418;2022-07-24T10:19:39;97072.50;;;29.65;38.31
50977;BME280;36992;48.200;12.418;2022-07-24T10:22:10;97064.53;;;29.71;36.81
50977;BME280;36992;48.200;12.418;2022-07-24T10:24:57;97068.78;;;29.79;38.29
50977;BME280;36992;48.200;12.418;2022-07-24T10:27:28;97061.66;;;29.78;36.76
50977;BME280;36992;48.200;12.418;2022-07-24T10:29:57;97067.19;;;29.82;36.25
50977;BME280;36992;48.200;12.418;2022-07-24T10:32:25;97071.09;;;29.88;35.92
50977;BME280;36992;48.200;12.418;2022-07-24T10:35:02;97063.06;;;29.97;35.35
50977;BME280;36992;48.200;12.418;2022-07-24T10:37:37;97064.19;;;30.04;35.50
50977;BME280;36992;48.200;12.418;2022-07-24T10:40:10;97061.97;;;30.26;37.90
50977;BME280;36992;48.200;12.418;2022-07-24T10:43:08;97056.47;;;30.22;36.50
50977;BME280;36992;48.200;12.418;2022-07-24T10:45:37;97058.44;;;30.22;34.97
50977;BME280;36992;48.200;12.418;2022-07-24T10:48:25;97056.69;;;30.35;36.79
50977;BME280;36992;48.200;12.418;2022-07-24T10:51:11;97058.59;;;30.42;36.15
50977;BME280;36992;48.200;12.418;2022-07-24T10:53:53;97060.88;;;30.51;36.61
50977;BME280;36992;48.200;12.418;2022-07-24T10:56:25;97055.25;;;30.54;35.40
50977;BME280;36992;48.200;12.418;2022-07-24T10:58:55;97053.19;;;30.59;34.38
50977;BME280;36992;48.200;12.418;2022-07-24T11:01:31;97051.09;;;30.70;35.06
50977;BME280;36992;48.200;12.418;2022-07-24T11:03:58;97050.25;;;30.73;34.57
50977;BME280;36992;48.200;12.418;2022-07-24T11:06:40;97050.03;;;30.88;35.95
50977;BME280;36992;48.200;12.418;2022-07-24T11:09:07;97046.84;;;30.89;34.51
50977;BME280;36992;48.200;12.418;2022-07-24T11:11:40;97042.69;;;31.01;33.25
50977;BME280;36992;48.200;12.418;2022-07-24T11:14:08;97052.53;;;31.06;32.24
50977;BME280;36992;48.200;12.418;2022-07-24T11:16:35;97041.72;;;31.12;32.74
50977;BME280;36992;48.200;12.418;2022-07-24T11:19:27;97039.91;;;31.25;34.06
50977;BME280;36992;48.200;12.418;2022-07-24T11:22:10;97039.06;;;31.32;34.26
50977;BME280;36992;48.200;12.418;2022-07-24T11:24:41;97029.50;;;31.33;31.95
50977;BME280;36992;48.200;12.418;2022-07-24T11:27:16;97033.78;;;31.38;33.63
50977;BME280;36992;48.200;12.418;2022-07-24T11:29:44;97033.78;;;31.38;31.64
50977;BME280;36992;48.200;12.418;2022-07-24T11:32:12;97022.16;;;31.43;31.05
50977;BME280;36992;48.200;12.418;2022-07-24T11:34:44;97021.31;;;31.46;31.44
50977;BME280;36992;48.200;12.418;2022-07-24T11:37:11;97020.41;;;31.53;31.46
50977;BME280;36992;48.200;12.418;2022-07-24T11:39:39;97029.03;;;31.58;31.75
50977;BME280;36992;48.200;12.418;2022-07-24T11:42:07;97023.34;;;31.66;31.40
50977;BME280;36992;48.200;12.418;2022-07-24T11:44:37;97014.41;;;31.74;31.64
50977;BME280;36992;48.200;12.418;2022-07-24T11:47:06;97015.94;;;31.79;31.37
50977;BME280;36992;48.200;12.418;2022-07-24T11:49:39;97007.81;;;31.88;31.03
50977;BME280;36992;48.200;12.418;2022-07-24T11:52:06;97003.38;;;31.91;29.46
50977;BME280;36992;48.200;12.418;2022-07-24T11:54:33;97005.25;;;31.98;29.90
50977;BME280;36992;48.200;12.418;2022-07-24T11:56:59;97003.53;;;32.04;30.04
50977;BME280;36992;48.200;12.418;2022-07-24T11:59:28;97004.16;;;32.12;29.47
50977;BME280;36992;48.200;12.418;2022-07-24T12:02:02;96998.00;;;32.21;30.94
50977;BME280;36992;48.200;12.418;2022-07-24T12:04:30;97003.88;;;32.26;29.48
50977;BME280;36992;48.200;12.418;2022-07-24T12:06:56;97001.34;;;32.32;28.63
50977;BME280;36992;48.200;12.418;2022-07-24T12:09:23;97004.38;;;32.41;29.46
50977;BME280;36992;48.200;12.418;2022-07-24T12:11:49;96995.47;;;32.47;29.25
50977;BME280;36992;48.200;12.418;2022-07-24T12:14:18;96996.09;;;32.54;28.99
50977;BME280;36992;48.200;12.418;2022-07-24T12:16:51;96994.28;;;32.64;29.78
50977;BME280;36992;48.200;12.418;2022-07-24T12:19:21;96999.00;;;32.67;28.86
50977;BME280;36992;48.200;12.418;2022-07-24T12:21:50;96995.34;;;32.70;29.15
50977;BME280;36992;48.200;12.418;2022-07-24T12:24:18;96999.28;;;32.73;27.66
50977;BME280;36992;48.200;12.418;2022-07-24T12:26:49;96990.81;;;32.77;28.06
50977;BME280;36992;48.200;12.418;2022-07-24T12:29:17;96986.97;;;32.70;28.98
50977;BME280;36992;48.200;12.418;2022-07-24T12:31:43;96989.00;;;32.70;29.28
50977;BME280;36992;48.200;12.418;2022-07-24T12:34:10;96986.13;;;32.74;27.97
50977;BME280;36992;48.200;12.418;2022-07-24T12:36:38;96983.69;;;32.76;28.70
50977;BME280;36992;48.200;12.418;2022-07-24T12:39:06;96974.09;;;32.77;27.49
50977;BME280;36992;48.200;12.418;2022-07-24T12:41:42;96985.06;;;32.84;29.25
50977;BME280;36992;48.200;12.418;2022-07-24T12:44:09;96975.59;;;32.81;27.43
50977;BME280;36992;48.200;12.418;2022-07-24T12:46:37;96975.50;;;32.85;28.41
50977;BME280;36992;48.200;12.418;2022-07-24T12:49:06;96976.19;;;32.89;28.92
50977;BME280;36992;48.200;12.418;2022-07-24T12:51:45;96977.53;;;33.01;29.50
50977;BME280;36992;48.200;12.418;2022-07-24T12:54:15;96970.72;;;33.02;28.78